createdAt,value
2023-05-04T00:01:11.691Z,83.50
2023-05-04T00:04:14.366Z,83.50
2023-05-04T00:07:16.818Z,83.70
2023-05-04T00:10:19.306Z,83.70
2023-05-04T00:13:22.377Z,83.80
2023-05-04T00:16:24.831Z,83.70
2023-05-04T00:19:27.120Z,83.70
2023-05-04T00:22:29.241Z,83.90
2023-05-04T00:25:31.813Z,83.80
2023-05-04T00:28:34.187Z,83.90
2023-05-04T00:31:36.717Z,83.80
2023-05-04T00:34:39.169Z,83.90
2023-05-04T00:37:43.917Z,83.90
2023-05-04T00:40:46.419Z,83.90
2023-05-04T00:43:49.470Z,84.00
2023-05-04T00:46:53.312Z,83.90
2023-05-04T00:50:02.265Z,84.00
2023-05-04T00:53:09.547Z,84.00
2023-05-04T00:56:12.905Z,84.10
2023-05-04T00:59:15.846Z,84.10
2023-05-04T01:02:18.148Z,84.10
2023-05-04T01:05:20.673Z,84.10
2023-05-04T01:08:31.562Z,84.20
2023-05-04T01:12:12.638Z,84.30
2023-05-04T01:15:15.883Z,84.30
2023-05-04T01:18:18.243Z,84.40
2023-05-04T01:21:20.923Z,84.40
2023-05-04T01:24:24.531Z,84.40
2023-05-04T01:27:37.761Z,84.40
2023-05-04T01:30:43.757Z,84.30
2023-05-04T01:33:46.595Z,84.50
2023-05-04T01:36:49.817Z,84.30
2023-05-04T01:39:52.221Z,84.40
2023-05-04T01:42:54.718Z,84.40
2023-05-04T01:45:56.952Z,84.40
2023-05-04T01:48:59.277Z,84.40
2023-05-04T01:52:02.187Z,84.40
2023-05-04T01:55:04.622Z,84.50
2023-05-04T01:58:08.616Z,84.40
2023-05-04T02:01:10.901Z,84.40
2023-05-04T02:04:13.336Z,84.40
2023-05-04T02:07:15.623Z,84.50
2023-05-04T02:10:18.319Z,84.70
2023-05-04T02:13:20.653Z,84.60
2023-05-04T02:16:23.483Z,84.60
2023-05-04T02:19:25.783Z,84.70
2023-05-04T02:22:28.061Z,84.70
2023-05-04T02:25:30.844Z,84.70
2023-05-04T02:28:33.046Z,84.70
2023-05-04T02:31:35.565Z,84.60
2023-05-04T02:34:37.832Z,84.70
2023-05-04T02:37:40.134Z,84.70
2023-05-04T02:40:42.404Z,84.70
2023-05-04T02:43:44.619Z,84.70
2023-05-04T02:46:46.859Z,84.70
2023-05-04T02:49:49.160Z,84.70
2023-05-04T02:52:52.881Z,84.80
2023-05-04T02:55:55.330Z,84.70
2023-05-04T02:58:57.926Z,84.70
2023-05-04T03:02:00.326Z,84.70
2023-05-04T03:05:03.068Z,84.70
2023-05-04T03:08:05.609Z,84.70
2023-05-04T03:11:08.013Z,84.80
2023-05-04T03:14:10.299Z,84.70
2023-05-04T03:17:12.571Z,84.60
2023-05-04T03:20:15.276Z,84.70
2023-05-04T03:23:18.020Z,84.80
2023-05-04T03:26:20.423Z,84.80
2023-05-04T03:29:23.871Z,84.70
2023-05-04T03:32:27.267Z,84.80
2023-05-04T03:35:29.648Z,84.80
2023-05-04T03:38:33.039Z,84.90
2023-05-04T03:41:35.321Z,84.80
2023-05-04T03:44:37.583Z,84.90
2023-05-04T03:47:40.032Z,84.80
2023-05-04T03:50:42.606Z,84.90
2023-05-04T03:53:45.073Z,84.80
2023-05-04T03:56:49.674Z,84.80
2023-05-04T03:59:53.709Z,84.80
2023-05-04T04:02:58.381Z,84.90
2023-05-04T04:06:02.034Z,84.80
2023-05-04T04:09:04.525Z,84.80
2023-05-04T04:12:06.999Z,84.80
2023-05-04T04:15:09.683Z,84.80
2023-05-04T04:18:12.226Z,84.80
2023-05-04T04:21:14.770Z,84.80
2023-05-04T04:24:17.161Z,84.90
2023-05-04T04:27:19.518Z,84.80
2023-05-04T04:30:22.063Z,84.80
2023-05-04T04:33:24.399Z,84.80
2023-05-04T04:36:27.030Z,84.80
2023-05-04T04:39:29.408Z,84.80
2023-05-04T04:42:32.473Z,85.50
2023-05-04T04:45:35.412Z,84.80
2023-05-04T04:48:38.072Z,84.80
2023-05-04T04:51:43.626Z,84.80
2023-05-04T04:54:46.196Z,84.90
2023-05-04T04:57:48.428Z,85.10
2023-05-04T05:00:52.999Z,85.10
2023-05-04T05:03:55.407Z,85.10
2023-05-04T05:06:57.732Z,85.20
2023-05-04T05:10:00.022Z,85.10
2023-05-04T05:13:02.447Z,85.30
2023-05-04T05:16:05.077Z,85.10
2023-05-04T05:19:07.275Z,85.10
2023-05-04T05:22:09.617Z,85.00
2023-05-04T05:25:12.642Z,85.10
2023-05-04T05:28:14.916Z,85.10
2023-05-04T05:31:17.225Z,85.10
2023-05-04T05:34:19.532Z,85.10
2023-05-04T05:37:21.966Z,85.10
2023-05-04T05:40:24.255Z,85.10
2023-05-04T05:43:26.606Z,85.00
2023-05-04T05:46:29.100Z,85.00
2023-05-04T05:49:31.632Z,85.00
2023-05-04T05:52:33.989Z,84.90
2023-05-04T05:55:36.365Z,84.90
2023-05-04T05:58:38.589Z,84.90
2023-05-04T06:01:40.852Z,84.90
2023-05-04T06:04:45.282Z,84.90
2023-05-04T06:07:47.552Z,84.90
2023-05-04T06:10:51.686Z,84.90
2023-05-04T06:13:54.208Z,84.90
2023-05-04T06:16:56.493Z,84.90
2023-05-04T06:19:58.727Z,85.00
2023-05-04T06:23:01.100Z,84.80
2023-05-04T06:26:08.290Z,85.00
2023-05-04T06:29:10.651Z,85.00
2023-05-04T06:32:12.999Z,85.00
2023-05-04T06:35:15.594Z,85.00
2023-05-04T06:38:17.962Z,85.00
2023-05-04T06:41:20.225Z,85.00
2023-05-04T06:44:22.986Z,85.00
2023-05-04T06:47:25.659Z,85.00
2023-05-04T06:50:28.162Z,85.00
2023-05-04T06:53:30.458Z,85.20
2023-05-04T06:56:33.075Z,85.20
2023-05-04T06:59:35.290Z,85.30
2023-05-04T07:02:37.547Z,85.10
2023-05-04T07:05:40.310Z,85.10
2023-05-04T07:08:42.682Z,85.00
2023-05-04T07:11:45.066Z,84.90
2023-05-04T07:14:47.361Z,84.70
2023-05-04T07:17:50.111Z,84.40
2023-05-04T07:20:54.239Z,84.30
2023-05-04T07:23:58.503Z,84.30
2023-05-04T07:27:01.360Z,84.10
2023-05-04T07:30:04.518Z,83.80
2023-05-04T07:33:06.968Z,83.60
2023-05-04T07:36:09.552Z,83.50
2023-05-04T07:39:12.851Z,83.30
2023-05-04T07:42:15.104Z,83.10
2023-05-04T07:45:17.821Z,82.90
2023-05-04T07:48:20.995Z,82.90
2023-05-04T07:51:23.772Z,82.70
2023-05-04T07:54:26.183Z,82.30
2023-05-04T07:57:28.497Z,82.30
2023-05-04T08:00:30.767Z,82.20
2023-05-04T08:03:33.199Z,82.00
2023-05-04T08:06:39.544Z,81.70
2023-05-04T08:09:42.103Z,81.50
2023-05-04T08:12:44.533Z,81.50
2023-05-04T08:15:47.078Z,81.30
2023-05-04T08:18:49.373Z,81.10
2023-05-04T08:21:51.635Z,81.00
2023-05-04T08:24:53.915Z,80.80
2023-05-04T08:27:56.557Z,80.60
2023-05-04T08:30:59.088Z,80.50
2023-05-04T08:34:01.878Z,80.30
2023-05-04T08:37:04.867Z,80.40
2023-05-04T08:40:08.492Z,80.20
2023-05-04T08:43:11.290Z,79.90
2023-05-04T08:46:14.699Z,80.10
2023-05-04T08:49:16.991Z,79.90
2023-05-04T08:52:20.115Z,79.90
2023-05-04T08:55:22.654Z,79.70
2023-05-04T08:58:27.341Z,79.60
2023-05-04T09:01:31.496Z,79.30
2023-05-04T09:04:33.892Z,79.40
2023-05-04T09:07:36.425Z,79.10
2023-05-04T09:10:38.766Z,79.30
2023-05-04T09:13:42.984Z,78.90
2023-05-04T09:16:45.361Z,78.40
2023-05-04T09:20:01.766Z,78.20
2023-05-04T09:23:08.947Z,78.20
2023-05-04T09:26:11.462Z,78.10
2023-05-04T09:29:15.286Z,77.80
2023-05-04T09:32:17.510Z,77.70
2023-05-04T09:35:33.658Z,77.60
2023-05-04T09:38:36.929Z,77.50
2023-05-04T09:41:39.576Z,77.30
2023-05-04T09:44:41.762Z,77.30
2023-05-04T09:47:45.010Z,77.30
2023-05-04T09:50:58.447Z,77.00
2023-05-04T09:54:05.286Z,77.30
2023-05-04T09:57:13.313Z,77.10
2023-05-04T10:00:17.583Z,77.20
2023-05-04T10:03:23.513Z,77.20
2023-05-04T10:06:28.583Z,77.00
2023-05-04T10:09:32.285Z,77.00
2023-05-04T10:12:34.792Z,76.90
2023-05-04T10:15:42.634Z,76.80
2023-05-04T10:18:58.986Z,76.60
2023-05-04T10:22:13.152Z,76.80
2023-05-04T10:25:59.793Z,76.30
2023-05-04T10:29:17.842Z,76.70
2023-05-04T10:32:21.877Z,76.30
2023-05-04T10:35:25.035Z,76.00
2023-05-04T10:38:35.134Z,76.00
2023-05-04T10:41:37.452Z,76.00
2023-05-04T10:45:01.709Z,75.70
2023-05-04T10:48:05.352Z,75.60
2023-05-04T10:51:35.715Z,75.70
2023-05-04T10:54:45.358Z,75.80
2023-05-04T10:57:54.431Z,75.40
2023-05-04T11:00:56.888Z,75.40
2023-05-04T11:03:59.239Z,75.40
2023-05-04T11:07:06.910Z,75.30
2023-05-04T11:10:24.701Z,75.30
2023-05-04T11:13:27.863Z,75.10
2023-05-04T11:16:30.111Z,75.10
2023-05-04T11:19:33.958Z,74.90
2023-05-04T11:22:37.560Z,74.70
2023-05-04T11:25:39.864Z,74.90
2023-05-04T11:28:42.833Z,74.90
2023-05-04T11:31:54.980Z,74.70
2023-05-04T11:34:57.751Z,74.50
2023-05-04T11:38:00.080Z,74.60
2023-05-04T11:41:02.977Z,74.40
2023-05-04T11:44:06.483Z,74.30
2023-05-04T11:47:09.264Z,74.40
2023-05-04T11:50:13.746Z,74.30
2023-05-04T11:53:21.702Z,74.00
2023-05-04T11:56:24.432Z,74.00
2023-05-04T11:59:26.713Z,73.90
2023-05-04T12:02:29.019Z,74.00
2023-05-04T12:05:31.996Z,73.70
2023-05-04T12:08:36.181Z,73.90
2023-05-04T12:11:38.641Z,73.80
2023-05-04T12:14:50.917Z,73.80
2023-05-04T12:17:53.390Z,74.00
2023-05-04T12:20:55.614Z,73.50
2023-05-04T12:23:58.049Z,73.80
2023-05-04T12:27:00.237Z,73.70
2023-05-04T12:30:02.531Z,73.50
2023-05-04T12:33:05.841Z,73.40
2023-05-04T12:36:08.456Z,73.40
2023-05-04T12:39:10.738Z,73.70
2023-05-04T12:42:13.034Z,73.50
2023-05-04T12:45:16.506Z,73.50
2023-05-04T12:48:20.660Z,73.40
2023-05-04T12:51:23.055Z,73.50
2023-05-04T12:54:25.676Z,73.40
2023-05-04T12:57:27.980Z,73.30
2023-05-04T13:00:35.974Z,73.30
2023-05-04T13:03:38.436Z,73.10
2023-05-04T13:06:41.005Z,73.40
2023-05-04T13:09:43.435Z,73.30
2023-05-04T13:12:46.306Z,73.20
2023-05-04T13:15:52.031Z,72.90
2023-05-04T13:18:55.564Z,73.30
2023-05-04T13:21:57.797Z,72.80
2023-05-04T13:25:00.579Z,73.10
2023-05-04T13:28:03.017Z,73.00
2023-05-04T13:31:06.315Z,73.20
2023-05-04T13:34:08.918Z,73.20
2023-05-04T13:37:16.889Z,73.00
2023-05-04T13:40:19.316Z,73.10
2023-05-04T13:43:22.428Z,73.20
2023-05-04T13:46:24.739Z,73.00
2023-05-04T13:49:27.188Z,73.30
2023-05-04T13:52:29.372Z,73.20
2023-05-04T13:55:31.773Z,73.10
2023-05-04T13:58:34.186Z,73.00
2023-05-04T14:01:36.516Z,73.10
2023-05-04T14:04:39.985Z,72.80
2023-05-04T14:07:42.426Z,73.00
2023-05-04T14:10:44.744Z,73.20
2023-05-04T14:13:48.768Z,72.90
2023-05-04T14:16:51.269Z,73.00
2023-05-04T14:19:53.664Z,73.10
2023-05-04T14:22:55.924Z,73.10
2023-05-04T14:25:58.255Z,73.20
2023-05-04T14:29:00.563Z,72.90
2023-05-04T14:32:02.866Z,73.20
2023-05-04T14:35:10.037Z,73.10
2023-05-04T14:38:13.455Z,73.30
2023-05-04T14:41:15.883Z,72.90
2023-05-04T14:44:18.083Z,73.00
2023-05-04T14:47:20.395Z,73.20
2023-05-04T14:50:22.973Z,72.90
2023-05-04T14:53:26.389Z,73.10
2023-05-04T14:56:28.717Z,72.90
2023-05-04T14:59:30.990Z,72.90
2023-05-04T15:02:33.578Z,73.10
2023-05-04T15:05:36.040Z,72.90
2023-05-04T15:08:38.275Z,73.00
2023-05-04T15:11:40.467Z,73.00
2023-05-04T15:14:42.675Z,72.80
2023-05-04T15:17:44.950Z,72.90
2023-05-04T15:20:47.127Z,73.00
2023-05-04T15:23:49.415Z,72.90
2023-05-04T15:26:51.649Z,72.40
2023-05-04T15:29:55.001Z,72.20
2023-05-04T15:32:57.379Z,71.90
2023-05-04T15:35:59.832Z,71.90
2023-05-04T15:39:02.851Z,71.70
2023-05-04T15:42:05.170Z,71.40
2023-05-04T15:45:09.902Z,71.40
2023-05-04T15:48:16.016Z,71.40
2023-05-04T15:51:19.012Z,71.40
2023-05-04T15:54:21.669Z,71.50
2023-05-04T15:57:23.870Z,71.50
2023-05-04T16:00:26.265Z,71.30
2023-05-04T16:03:28.663Z,71.70
2023-05-04T16:06:31.517Z,71.60
2023-05-04T16:09:34.349Z,71.60
2023-05-04T16:12:36.683Z,71.70
2023-05-04T16:15:39.135Z,71.60
2023-05-04T16:18:41.476Z,71.60
2023-05-04T16:21:43.803Z,71.50
2023-05-04T16:24:46.975Z,71.40
2023-05-04T16:27:49.278Z,71.60
2023-05-04T16:30:51.565Z,71.70
2023-05-04T16:34:00.349Z,71.50
2023-05-04T16:37:02.711Z,71.40
2023-05-04T16:40:15.510Z,71.20
2023-05-04T16:43:17.804Z,71.30
2023-05-04T16:46:20.049Z,71.50
2023-05-04T16:49:22.343Z,71.50
2023-05-04T16:52:24.856Z,71.50
2023-05-04T16:55:27.528Z,71.50
2023-05-04T16:58:29.967Z,71.20
2023-05-04T17:04:52.228Z,71.60
2023-05-04T17:07:54.572Z,71.50
2023-05-04T17:11:00.250Z,71.60
2023-05-04T17:14:03.851Z,71.60
2023-05-04T17:17:07.086Z,71.90
2023-05-04T17:20:14.931Z,71.50
2023-05-04T17:23:17.416Z,71.60
2023-05-04T17:26:19.991Z,71.70
2023-05-04T17:29:22.199Z,71.70
2023-05-04T17:32:24.867Z,71.80
2023-05-04T17:35:27.619Z,71.70
2023-05-04T17:38:30.120Z,71.90
2023-05-04T17:41:32.439Z,71.80
2023-05-04T17:44:34.670Z,71.80
2023-05-04T17:47:37.064Z,72.10
2023-05-04T17:50:41.120Z,72.00
2023-05-04T17:53:43.457Z,72.10
2023-05-04T17:56:46.359Z,72.10
2023-05-04T17:59:49.521Z,72.10
2023-05-04T18:02:51.918Z,72.20
2023-05-04T18:05:54.215Z,72.20
2023-05-04T18:08:56.561Z,72.20
2023-05-04T18:11:58.740Z,72.30
2023-05-04T18:15:00.957Z,72.40
2023-05-04T18:18:03.326Z,72.40
2023-05-04T18:21:05.745Z,72.40
2023-05-04T18:24:08.600Z,72.70
2023-05-04T18:27:10.878Z,72.60
2023-05-04T18:30:13.507Z,72.70
2023-05-04T18:33:15.796Z,72.80
2023-05-04T18:36:18.896Z,72.90
2023-05-04T18:39:21.114Z,72.90
2023-05-04T18:42:23.399Z,72.80
2023-05-04T18:45:25.680Z,72.80
2023-05-04T18:48:28.271Z,72.90
2023-05-04T18:51:31.243Z,72.90
2023-05-04T18:54:33.878Z,72.90
2023-05-04T18:57:36.528Z,73.00
2023-05-04T19:00:38.740Z,72.90
2023-05-04T19:03:40.999Z,73.20
2023-05-04T19:06:43.339Z,73.10
2023-05-04T19:09:46.236Z,73.20
2023-05-04T19:12:50.498Z,73.30
2023-05-04T19:15:52.848Z,73.30
2023-05-04T19:18:55.841Z,73.30
2023-05-04T19:21:58.803Z,73.40
2023-05-04T19:25:00.983Z,73.40
2023-05-04T19:28:08.930Z,73.50
2023-05-04T19:31:11.592Z,73.50
2023-05-04T19:34:15.588Z,74.40
2023-05-04T19:37:20.036Z,73.70
2023-05-04T19:40:22.333Z,73.70
2023-05-04T19:43:24.617Z,73.70
2023-05-04T19:46:27.015Z,73.70
2023-05-04T19:49:29.541Z,73.80
2023-05-04T19:52:31.826Z,73.80
2023-05-04T19:55:34.546Z,73.90
2023-05-04T19:58:37.974Z,73.90
2023-05-04T20:01:40.300Z,73.90
2023-05-04T20:04:42.639Z,74.00
2023-05-04T20:07:44.920Z,74.00
2023-05-04T20:10:47.387Z,74.00
2023-05-04T20:13:49.658Z,74.10
2023-05-04T20:16:52.750Z,74.00
2023-05-04T20:19:55.291Z,74.10
2023-05-04T20:22:57.609Z,74.00
2023-05-04T20:25:59.843Z,74.10
2023-05-04T20:29:02.081Z,74.10
2023-05-04T20:32:05.829Z,74.10
2023-05-04T20:35:09.083Z,74.20
2023-05-04T20:38:11.802Z,74.20
2023-05-04T20:41:14.113Z,74.30
2023-05-04T20:44:17.394Z,74.30
2023-05-04T20:47:19.907Z,74.40
2023-05-04T20:50:22.383Z,74.40
2023-05-04T20:53:24.820Z,74.40
2023-05-04T20:56:27.469Z,74.60
2023-05-04T20:59:29.938Z,74.60
2023-05-04T21:02:32.228Z,74.50
2023-05-04T21:05:37.968Z,74.60
2023-05-04T21:08:40.252Z,74.60
2023-05-04T21:11:42.534Z,74.70
2023-05-04T21:14:58.999Z,74.70
2023-05-04T21:18:01.301Z,74.70
2023-05-04T21:21:23.915Z,74.80
2023-05-04T21:24:26.329Z,74.70
2023-05-04T21:27:28.664Z,74.80
2023-05-04T21:30:30.956Z,74.80
2023-05-04T21:33:33.130Z,74.80
2023-05-04T21:36:35.717Z,74.80
2023-05-04T21:39:37.996Z,74.80
2023-05-04T21:42:40.255Z,74.90
2023-05-04T21:45:42.635Z,75.00
2023-05-04T21:48:44.899Z,75.00
2023-05-04T21:51:47.086Z,75.00
2023-05-04T21:54:49.691Z,75.00
2023-05-04T21:57:51.969Z,75.00
2023-05-04T22:00:54.963Z,75.00
2023-05-04T22:03:57.720Z,75.10
2023-05-04T22:07:00.117Z,75.10
2023-05-04T22:10:03.425Z,75.20
2023-05-04T22:13:05.926Z,75.20
2023-05-04T22:16:11.259Z,75.20
2023-05-04T22:19:13.798Z,75.20
2023-05-04T22:22:16.126Z,75.30
2023-05-04T22:25:18.383Z,75.30
2023-05-04T22:28:21.048Z,75.30
2023-05-04T22:31:23.488Z,75.40
2023-05-04T22:34:25.897Z,75.40
2023-05-04T22:37:28.191Z,75.50
2023-05-04T22:40:30.688Z,75.40
2023-05-04T22:43:32.973Z,75.40
2023-05-04T22:46:35.291Z,75.60
2023-05-04T22:49:38.039Z,75.60
2023-05-04T22:52:40.686Z,75.60
2023-05-04T22:55:43.104Z,75.60
2023-05-04T22:58:48.280Z,75.60
2023-05-04T23:01:50.834Z,75.70
2023-05-04T23:04:53.481Z,75.70
2023-05-04T23:07:55.818Z,75.70
2023-05-04T23:10:58.069Z,75.80
2023-05-04T23:14:00.289Z,75.80
2023-05-04T23:17:03.084Z,75.80
2023-05-04T23:20:07.484Z,75.90
2023-05-04T23:23:09.916Z,75.80
2023-05-04T23:26:12.549Z,75.90
2023-05-04T23:29:14.921Z,75.90
2023-05-04T23:32:17.294Z,75.90
2023-05-04T23:35:19.597Z,75.90
2023-05-04T23:38:23.059Z,76.00
2023-05-04T23:41:25.366Z,76.00
2023-05-04T23:44:27.769Z,76.00
2023-05-04T23:47:30.103Z,76.00
2023-05-04T23:50:32.509Z,76.10
2023-05-04T23:53:38.282Z,76.10
2023-05-04T23:56:40.524Z,76.10
2023-05-04T23:59:42.826Z,76.10
